Time;durP1;ratioP1;P1;durP2;ratioP2;P2;SDS_P1;SDS_P2;PMS_P1;PMS_P2;Temp;Humidity;BMP_temperature;BMP_pressure;BME280_temperature;BME280_humidity;BME280_pressure;Samples;Min_cycle;Max_cycle;Signal;HPM_P1;HPM_P2
2023/10/23 00:02:30;;;;;;;3.47;1.48;;;;;;;9.07;100.00;100682.41;6141063;28;20028;-70
2023/10/23 00:05:25;;;;;;;3.55;1.67;;;;;;;9.03;100.00;100685.44;6131065;28;20028;-72
2023/10/23 00:08:20;;;;;;;4.47;1.70;;;;;;;9.01;100.00;100688.25;6143955;28;20514;-71
2023/10/23 00:11:27;;;;;;;5.33;1.67;;;;;;;8.90;100.00;100675.13;6132041;28;20073;-72
2023/10/23 00:14:22;;;;;;;4.25;1.65;;;;;;;9.01;100.00;100697.97;6122160;28;20021;-71
2023/10/23 00:17:17;;;;;;;4.00;2.17;;;;;;;9.08;100.00;100705.22;6129884;28;20067;-73
2023/10/23 00:20:13;;;;;;;5.27;2.13;;;;;;;9.13;100.00;100692.41;6119636;28;20301;-72
2023/10/23 00:23:08;;;;;;;4.00;2.00;;;;;;;9.16;100.00;100697.44;6122371;28;20483;-72
2023/10/23 00:26:05;;;;;;;4.20;2.17;;;;;;;9.22;100.00;100696.91;6139346;28;20277;-74
2023/10/23 00:29:01;;;;;;;5.88;2.28;;;;;;;9.20;100.00;100703.31;6140713;28;20035;-71
2023/10/23 00:31:57;;;;;;;6.10;2.60;;;;;;;9.19;100.00;100707.75;6132324;28;20402;-72
2023/10/23 00:34:52;;;;;;;5.20;2.60;;;;;;;9.16;100.00;100694.78;6136848;28;20031;-73
2023/10/23 00:37:47;;;;;;;4.70;2.30;;;;;;;9.16;100.00;100696.63;6121783;28;20040;-70
2023/10/23 00:40:43;;;;;;;6.70;2.33;;;;;;;9.03;100.00;100696.88;6129413;28;20103;-73
2023/10/23 00:43:38;;;;;;;4.93;2.28;;;;;;;8.99;100.00;100700.78;6117078;28;20040;-71
2023/10/23 00:46:33;;;;;;;3.73;2.10;;;;;;;9.02;100.00;100697.84;6136323;28;20411;-72
2023/10/23 00:49:29;;;;;;;4.47;2.50;;;;;;;8.95;100.00;100705.50;6131760;28;20458;-72
2023/10/23 00:52:25;;;;;;;4.17;2.23;;;;;;;8.92;100.00;100704.91;6111040;28;20044;-72
2023/10/23 00:55:20;;;;;;;3.72;2.10;;;;;;;8.88;100.00;100700.88;6137718;28;20024;-72
2023/10/23 00:58:15;;;;;;;4.60;2.10;;;;;;;8.90;100.00;100714.81;6136898;28;20737;-71
2023/10/23 01:01:12;;;;;;;3.58;2.08;;;;;;;8.82;100.00;100706.69;6136925;28;20263;-72
2023/10/23 01:04:07;;;;;;;4.70;2.40;;;;;;;8.81;100.00;100705.88;6123075;28;20035;-73
2023/10/23 01:07:03;;;;;;;3.83;2.60;;;;;;;8.77;100.00;100704.47;6137927;28;20438;-70
2023/10/23 01:09:58;;;;;;;6.53;2.33;;;;;;;8.68;100.00;100705.28;6139526;28;20337;-71
2023/10/23 01:12:56;;;;;;;4.50;2.30;;;;;;;8.80;100.00;100717.44;6140321;28;20020;-71
2023/10/23 01:15:51;;;;;;;5.30;2.15;;;;;;;8.78;100.00;100703.47;6129060;28;20056;-73
2023/10/23 01:18:46;;;;;;;3.77;2.23;;;;;;;8.85;100.00;100719.66;6132771;28;20040;-72
2023/10/23 01:21:42;;;;;;;4.47;1.93;;;;;;;8.77;100.00;100712.41;6131608;28;20403;-72
2023/10/23 01:24:39;;;;;;;3.97;2.13;;;;;;;8.76;100.00;100709.88;6137552;28;20047;-72
2023/10/23 01:27:34;;;;;;;5.68;2.38;;;;;;;8.91;100.00;100722.59;6106787;28;20032;-73
2023/10/23 01:30:30;;;;;;;6.28;2.55;;;;;;;9.01;100.00;100724.44;6122274;28;20681;-73
2023/10/23 01:33:25;;;;;;;5.00;2.30;;;;;;;8.99;100.00;100722.75;6109617;28;20043;-72
2023/10/23 01:36:20;;;;;;;4.70;2.40;;;;;;;9.07;100.00;100730.03;6138570;28;20028;-73
2023/10/23 01:39:16;;;;;;;5.47;2.20;;;;;;;9.13;100.00;100734.75;6132262;28;20047;-73
2023/10/23 01:42:11;;;;;;;6.23;2.37;;;;;;;9.16;100.00;100723.91;6131657;28;20033;-73
2023/10/23 01:45:07;;;;;;;4.43;2.17;;;;;;;9.31;100.00;100734.94;6140200;28;20458;-73
2023/10/23 01:48:03;;;;;;;4.95;2.45;;;;;;;9.47;100.00;100720.19;6104945;28;20294;-74
2023/10/23 01:51:01;;;;;;;4.18;2.05;;;;;;;9.43;100.00;100716.13;6130354;28;20032;-73
2023/10/23 01:53:57;;;;;;;3.97;2.10;;;;;;;9.64;100.00;100728.41;6101779;28;20070;-72
2023/10/23 01:56:52;;;;;;;4.18;2.17;;;;;;;9.66;100.00;100727.28;6134273;28;20360;-73
2023/10/23 01:59:47;;;;;;;6.00;1.87;;;;;;;9.50;100.00;100724.34;6139399;28;20105;-73
2023/10/23 02:02:43;;;;;;;5.23;1.90;;;;;;;9.57;100.00;100733.41;6143119;28;20035;-73
2023/10/23 02:05:38;;;;;;;5.30;2.27;;;;;;;9.61;100.00;100728.69;6144431;28;20024;-72
2023/10/23 02:08:33;;;;;;;5.00;2.10;;;;;;;9.62;100.00;100740.94;6136380;28;20048;-72
2023/10/23 02:11:29;;;;;;;5.80;2.53;;;;;;;9.64;100.00;100744.28;6144057;28;20036;-72
2023/10/23 02:14:24;;;;;;;4.05;2.35;;;;;;;9.64;100.00;100739.84;6128690;28;20395;-71
2023/10/23 02:17:20;;;;;;;6.10;2.37;;;;;;;9.67;100.00;100736.91;6141791;28;20107;-73
2023/10/23 02:20:15;;;;;;;4.15;2.30;;;;;;;9.74;100.00;100737.16;6109684;28;20307;-72
2023/10/23 02:23:11;;;;;;;7.40;2.10;;;;;;;9.84;100.00;100748.59;6142760;28;20616;-72
2023/10/23 02:26:06;;;;;;;4.40;2.20;;;;;;;9.78;100.00;100746.53;6138941;28;20115;-72
2023/10/23 02:29:01;;;;;;;4.53;2.20;;;;;;;9.85;100.00;100748.47;6140038;28;20028;-73
2023/10/23 02:31:56;;;;;;;3.80;2.20;;;;;;;9.84;100.00;100764.47;6144738;28;20047;-72
2023/10/23 02:34:52;;;;;;;3.97;2.00;;;;;;;9.76;100.00;100749.28;6136470;28;20021;-74
2023/10/23 02:37:49;;;;;;;4.13;2.07;;;;;;;9.83;100.00;100761.00;6137986;28;20570;-73
2023/10/23 02:40:54;;;;;;;2.97;1.73;;;;;;;9.70;100.00;100743.75;6139341;28;20556;-73
2023/10/23 02:43:49;;;;;;;4.28;2.08;;;;;;;9.82;100.00;100753.19;6135154;28;20020;-72
2023/10/23 02:46:44;;;;;;;4.03;2.30;;;;;;;9.88;100.00;100757.94;6137523;28;20454;-72
2023/10/23 02:49:40;;;;;;;4.97;2.03;;;;;;;9.85;100.00;100761.72;6134977;28;20032;-72
2023/10/23 02:52:35;;;;;;;4.03;1.80;;;;;;;9.88;100.00;100761.44;6135826;28;20274;-72
2023/10/23 02:55:30;;;;;;;3.83;2.07;;;;;;;9.88;100.00;100765.88;6137931;28;20039;-72
2023/10/23 02:58:26;;;;;;;3.63;2.00;;;;;;;9.90;100.00;100767.41;6144484;28;20108;-72
2023/10/23 03:01:23;;;;;;;5.90;2.07;;;;;;;9.91;100.00;100765.59;6144798;28;20035;-73
2023/10/23 03:04:18;;;;;;;5.95;1.75;;;;;;;9.95;100.00;100769.63;6142537;28;20034;-72
2023/10/23 03:07:14;;;;;;;3.50;1.83;;;;;;;9.93;100.00;100761.84;6140091;28;20024;-72
2023/10/23 03:10:09;;;;;;;4.00;2.35;;;;;;;10.01;100.00;100772.56;6141138;28;20024;-72
2023/10/23 03:13:05;;;;;;;3.88;1.88;;;;;;;10.02;100.00;100768.09;6134808;28;20115;-72
2023/10/23 03:16:00;;;;;;;3.57;2.03;;;;;;;10.01;100.00;100769.91;6136739;28;20036;-71
2023/10/23 03:18:55;;;;;;;2.80;1.52;;;;;;;10.05;100.00;100783.72;6139091;28;20044;-72
2023/10/23 03:21:51;;;;;;;3.40;1.53;;;;;;;10.05;100.00;100791.69;6132536;28;20387;-71
2023/10/23 03:24:47;;;;;;;5.05;2.15;;;;;;;10.01;100.00;100777.03;6141894;28;20040;-71
2023/10/23 03:27:42;;;;;;;5.87;2.00;;;;;;;10.09;100.00;100780.66;6144041;28;20035;-71
2023/10/23 03:30:37;;;;;;;2.83;1.60;;;;;;;10.09;100.00;100791.25;6128726;28;20431;-73
2023/10/23 03:33:33;;;;;;;4.00;1.97;;;;;;;10.16;100.00;100799.50;6134861;28;20480;-71
2023/10/23 03:36:28;;;;;;;5.22;1.70;;;;;;;10.17;100.00;100801.16;6139219;28;20471;-71
2023/10/23 03:39:24;;;;;;;4.23;1.97;;;;;;;10.21;100.00;100801.72;6135227;28;20032;-72
2023/10/23 03:42:19;;;;;;;3.50;1.80;;;;;;;10.23;100.00;100805.06;6136335;28;20113;-72
2023/10/23 03:45:14;;;;;;;3.43;1.70;;;;;;;10.21;100.00;100799.91;6126676;28;20266;-72
2023/10/23 03:48:10;;;;;;;4.05;1.80;;;;;;;10.17;100.00;100793.22;6124402;28;20275;-71
2023/10/23 03:51:05;;;;;;;5.43;1.90;;;;;;;10.17;100.00;100798.50;6124657;28;20028;-72
2023/10/23 03:54:00;;;;;;;5.77;2.30;;;;;;;10.15;100.00;100800.47;6134486;28;20054;-72
2023/10/23 03:56:55;;;;;;;4.93;2.23;;;;;;;10.15;100.00;100803.13;6145451;28;20262;-73
2023/10/23 03:59:51;;;;;;;3.83;1.90;;;;;;;10.08;100.00;100796.69;6138499;28;20035;-73
2023/10/23 04:02:46;;;;;;;4.20;2.00;;;;;;;10.13;100.00;100800.63;6138416;28;20040;-72
2023/10/23 04:05:41;;;;;;;4.60;2.20;;;;;;;10.17;100.00;100798.50;6141269;28;20107;-73
2023/10/23 04:08:37;;;;;;;5.47;2.30;;;;;;;10.15;100.00;100798.66;6139470;28;20073;-73
2023/10/23 04:11:32;;;;;;;3.75;2.20;;;;;;;10.05;100.00;100781.06;6140611;28;20647;-72
2023/10/23 04:14:28;;;;;;;5.83;2.13;;;;;;;10.13;100.00;100794.50;6143307;28;20031;-71
2023/10/23 04:17:23;;;;;;;4.10;2.37;;;;;;;10.07;100.00;100782.59;6143534;28;20032;-72
2023/10/23 04:20:18;;;;;;;6.23;2.57;;;;;;;10.08;100.00;100780.81;6131330;28;20425;-72
2023/10/23 04:23:14;;;;;;;5.00;2.70;;;;;;;10.17;100.00;100787.91;6142245;28;20031;-72
2023/10/23 04:26:09;;;;;;;11.77;2.80;;;;;;;10.12;100.00;100796.28;6138799;28;20032;-71
2023/10/23 04:29:04;;;;;;;4.70;2.33;;;;;;;10.08;100.00;100802.00;6138637;28;20028;-72
2023/10/23 04:32:00;;;;;;;4.63;2.42;;;;;;;10.06;100.00;100798.63;6139375;28;20032;-73
2023/10/23 04:34:55;;;;;;;4.80;2.50;;;;;;;10.03;100.00;100805.03;6135706;28;20071;-72
2023/10/23 04:37:51;;;;;;;4.78;2.72;;;;;;;9.96;100.00;100800.44;6140750;28;20561;-72
2023/10/23 04:40:46;;;;;;;6.00;2.40;;;;;;;9.92;100.00;100775.25;6134367;28;20090;-72
2023/10/23 04:43:41;;;;;;;7.47;2.80;;;;;;;9.88;100.00;100779.13;6138149;28;20285;-71
2023/10/23 04:46:37;;;;;;;4.93;2.30;;;;;;;9.91;100.00;100792.09;6143722;28;20051;-71
2023/10/23 04:49:32;;;;;;;4.87;2.07;;;;;;;10.02;100.00;100784.00;6109961;28;20032;-71
2023/10/23 04:52:27;;;;;;;5.43;2.77;;;;;;;10.06;100.00;100801.28;6129170;28;20028;-71
2023/10/23 04:55:22;;;;;;;4.90;2.40;;;;;;;10.01;100.00;100790.28;6127280;28;20024;-72
2023/10/23 04:58:18;;;;;;;4.10;2.40;;;;;;;9.93;100.00;100790.97;6137987;28;20082;-71
2023/10/23 05:01:17;;;;;;;6.10;2.30;;;;;;;9.92;100.00;100781.34;6126783;28;20154;-71
2023/10/23 05:04:12;;;;;;;6.20;2.80;;;;;;;9.89;100.00;100786.09;6128121;28;20032;-72
2023/10/23 05:07:07;;;;;;;6.53;2.47;;;;;;;9.93;100.00;100798.06;6136332;28;20110;-70
2023/10/23 05:10:04;;;;;;;4.10;2.53;;;;;;;9.88;100.00;100789.72;6134455;28;20375;-71
2023/10/23 05:12:59;;;;;;;6.13;2.70;;;;;;;9.89;100.00;100791.41;6133559;28;20034;-71
2023/10/23 05:16:04;;;;;;;5.90;2.70;;;;;;;9.84;100.00;100793.59;6133020;28;20037;-72
2023/10/23 05:18:59;;;;;;;5.45;2.60;;;;;;;9.79;100.00;100790.53;6134755;28;20024;-71
2023/10/23 05:21:55;;;;;;;5.33;2.20;;;;;;;9.78;100.00;100795.03;6142944;28;20368;-71
2023/10/23 05:24:50;;;;;;;4.55;2.40;;;;;;;9.86;100.00;100802.28;6137334;28;20043;-71
2023/10/23 05:27:45;;;;;;;4.70;2.43;;;;;;;10.01;100.00;100822.06;6140798;28;20109;-71
2023/10/23 05:30:41;;;;;;;4.67;2.70;;;;;;;10.05;100.00;100834.06;6133050;28;20050;-71
2023/10/23 05:33:36;;;;;;;4.90;2.63;;;;;;;10.10;100.00;100823.88;6122337;28;20043;-73
2023/10/23 05:36:31;;;;;;;4.38;2.22;;;;;;;10.18;100.00;100833.81;6115160;28;20032;-73
2023/10/23 05:39:27;;;;;;;6.70;2.73;;;;;;;10.15;100.00;100834.91;6138128;28;20525;-71
2023/10/23 05:42:23;;;;;;;5.50;2.83;;;;;;;10.16;100.00;100826.00;6125480;28;20028;-71
2023/10/23 05:45:18;;;;;;;7.03;2.97;;;;;;;10.30;100.00;100833.50;6128662;28;20033;-72
2023/10/23 05:48:13;;;;;;;6.57;3.10;;;;;;;10.34;100.00;100837.56;6143318;28;20032;-71
2023/10/23 05:51:08;;;;;;;5.37;3.00;;;;;;;10.34;100.00;100855.28;6122110;28;20036;-72
2023/10/23 05:54:04;;;;;;;5.10;2.50;;;;;;;10.29;100.00;100833.66;6131282;28;20270;-71
2023/10/23 05:56:59;;;;;;;6.82;3.15;;;;;;;10.34;100.00;100840.22;6144595;28;20031;-71
2023/10/23 05:59:55;;;;;;;4.47;2.55;;;;;;;10.42;100.00;100852.75;6132425;28;20032;-72
2023/10/23 06:02:50;;;;;;;6.30;2.47;;;;;;;10.47;100.00;100859.31;6137278;28;20060;-73
2023/10/23 06:05:46;;;;;;;6.07;3.03;;;;;;;10.49;100.00;100864.47;6140754;28;20033;-71
2023/10/23 06:08:41;;;;;;;6.07;2.97;;;;;;;10.43;100.00;100873.84;6130837;28;20037;-70
2023/10/23 06:11:36;;;;;;;4.45;2.53;;;;;;;10.37;100.00;100860.28;6133089;28;20051;-73
2023/10/23 06:14:32;;;;;;;4.80;2.60;;;;;;;10.27;100.00;100862.97;6135352;28;20035;-71
2023/10/23 06:17:28;;;;;;;5.53;2.93;;;;;;;10.32;100.00;100863.38;6130522;28;20047;-71
2023/10/23 06:20:23;;;;;;;5.60;2.80;;;;;;;10.35;100.00;100876.34;6122829;28;20533;-71
2023/10/23 06:23:18;;;;;;;5.23;2.60;;;;;;;10.41;100.00;100888.22;6129232;28;20519;-71
2023/10/23 06:26:13;;;;;;;5.20;2.70;;;;;;;10.40;100.00;100879.41;6126908;28;20060;-72
2023/10/23 06:29:09;;;;;;;6.23;2.50;;;;;;;10.55;100.00;100890.41;6143471;28;20028;-71
2023/10/23 06:32:05;;;;;;;5.10;2.47;;;;;;;10.54;100.00;100894.91;6127684;28;20074;-71
2023/10/23 06:35:00;;;;;;;4.50;2.60;;;;;;;10.55;100.00;100891.25;6132898;28;20052;-72
2023/10/23 06:37:55;;;;;;;6.30;2.67;;;;;;;10.63;100.00;100894.03;6125300;28;20044;-71
2023/10/23 06:40:50;;;;;;;4.93;2.70;;;;;;;10.75;100.00;100890.25;6134667;28;20028;-70
2023/10/23 06:43:46;;;;;;;6.13;2.43;;;;;;;10.67;100.00;100884.81;6123497;28;20502;-71
2023/10/23 06:46:41;;;;;;;5.17;2.87;;;;;;;10.69;100.00;100888.16;6137385;28;20062;-71
2023/10/23 06:49:37;;;;;;;5.33;2.87;;;;;;;10.85;100.00;100892.03;6132355;28;20035;-71
2023/10/23 06:52:32;;;;;;;5.03;2.33;;;;;;;10.74;100.00;100903.63;6126010;28;20271;-70
2023/10/23 06:55:28;;;;;;;6.88;2.55;;;;;;;10.76;100.00;100901.69;6133730;28;20032;-70
2023/10/23 06:58:23;;;;;;;6.23;2.60;;;;;;;10.98;100.00;100911.97;6135758;28;20028;-70
2023/10/23 07:01:18;;;;;;;4.23;2.30;;;;;;;10.81;100.00;100906.56;6128620;28;20782;-70
2023/10/23 07:04:14;;;;;;;6.90;2.80;;;;;;;10.77;100.00;100909.50;6141333;28;20297;-72
2023/10/23 07:07:09;;;;;;;4.47;2.17;;;;;;;10.85;100.00;100918.56;6133300;28;20387;-71
2023/10/23 07:10:06;;;;;;;4.23;2.57;;;;;;;10.88;100.00;100929.72;6128229;28;20382;-72
2023/10/23 07:13:02;;;;;;;5.63;2.55;;;;;;;10.89;100.00;100922.59;6133167;28;20062;-71
2023/10/23 07:16:03;;;;;;;4.55;2.30;;;;;;;10.92;100.00;100922.31;6116343;28;20412;-73
2023/10/23 07:18:58;;;;;;;;;;;;;;;10.99;100.00;100924.25;6128638;28;20032;-71
2023/10/23 07:21:54;;;;;;;9.48;4.32;;;;;;;10.86;100.00;100904.31;6127143;28;19952;-72
2023/10/23 07:24:49;;;;;;;9.43;3.90;;;;;;;10.90;100.00;100916.34;6129810;28;20576;-72
2023/10/23 07:27:44;;;;;;;6.17;3.37;;;;;;;10.86;100.00;100910.47;6125225;28;20442;-71
2023/10/23 07:30:39;;;;;;;5.23;3.00;;;;;;;10.94;100.00;100915.91;6143482;28;20028;-71
2023/10/23 07:33:35;;;;;;;7.20;2.70;;;;;;;11.03;100.00;100919.50;6133769;28;20040;-70
2023/10/23 07:36:30;;;;;;;4.50;2.40;;;;;;;11.08;100.00;100914.59;6127488;28;20036;-72
2023/10/23 07:39:26;;;;;;;4.32;2.20;;;;;;;11.15;100.00;100915.69;6135855;28;20263;-71
2023/10/23 07:42:21;;;;;;;7.23;3.00;;;;;;;11.17;100.00;100919.88;6128210;28;20419;-71
2023/10/23 07:45:16;;;;;;;8.20;3.03;;;;;;;11.12;100.00;100905.34;6130032;28;20031;-72
2023/10/23 07:48:11;;;;;;;4.20;2.50;;;;;;;11.25;100.00;100921.81;6133474;28;20036;-72
2023/10/23 07:51:07;;;;;;;5.63;2.77;;;;;;;11.23;100.00;100915.78;6135172;28;20111;-71
2023/10/23 07:54:03;;;;;;;5.43;2.70;;;;;;;11.24;100.00;100912.16;6133375;28;20427;-71
2023/10/23 07:56:58;;;;;;;6.00;3.20;;;;;;;11.32;100.00;100933.53;6140127;28;20265;-72
2023/10/23 07:59:53;;;;;;;5.80;2.72;;;;;;;11.19;100.00;100927.69;6127851;28;20089;-71
2023/10/23 08:02:49;;;;;;;5.30;2.90;;;;;;;11.35;100.00;100928.75;6140269;28;20474;-71
2023/10/23 08:05:44;;;;;;;4.63;2.50;;;;;;;11.40;100.00;100914.19;6134807;28;20298;-71
2023/10/23 08:08:40;;;;;;;4.93;2.47;;;;;;;11.51;100.00;100920.16;6129151;28;20369;-71
2023/10/23 08:11:35;;;;;;;5.00;2.67;;;;;;;11.81;100.00;100911.94;6136458;28;20098;-70
2023/10/23 08:14:31;;;;;;;4.90;2.70;;;;;;;12.20;100.00;100915.13;6139859;28;20036;-70
2023/10/23 08:17:26;;;;;;;5.33;2.97;;;;;;;12.26;100.00;100916.34;6132667;28;20284;-71
2023/10/23 08:20:21;;;;;;;5.50;2.67;;;;;;;12.28;100.00;100912.59;6126303;28;20395;-72
2023/10/23 08:23:17;;;;;;;5.47;2.97;;;;;;;12.27;100.00;100920.69;6131392;28;20032;-71
2023/10/23 08:26:12;;;;;;;5.28;2.80;;;;;;;12.33;100.00;100922.75;6128832;28;20836;-70
2023/10/23 08:29:08;;;;;;;6.27;3.40;;;;;;;12.38;100.00;100915.16;6125427;28;20385;-72
2023/10/23 08:32:03;;;;;;;9.10;3.45;;;;;;;12.72;100.00;100918.75;6132402;28;20034;-70
2023/10/23 08:34:59;;;;;;;7.03;3.40;;;;;;;12.97;100.00;100909.97;6124466;28;20119;-70
2023/10/23 08:37:54;;;;;;;4.78;2.88;;;;;;;13.47;100.00;100922.59;6135813;28;20302;-71
2023/10/23 08:40:50;;;;;;;6.63;3.70;;;;;;;13.45;100.00;100903.28;6107375;28;20043;-71
2023/10/23 08:43:46;;;;;;;9.02;4.65;;;;;;;13.69;100.00;100924.69;6111319;28;20043;-69
2023/10/23 08:46:41;;;;;;;9.20;4.17;;;;;;;14.35;100.00;100910.56;6125264;28;20395;-71
2023/10/23 08:49:36;;;;;;;10.67;4.73;;;;;;;14.65;100.00;100915.22;6129457;28;20531;-70
2023/10/23 08:52:35;;;;;;;10.23;5.53;;;;;;;14.75;100.00;100910.56;6129902;28;20271;-70
2023/10/23 08:55:30;;;;;;;11.13;5.18;;;;;;;15.39;100.00;100909.56;6105100;28;20025;-71
2023/10/23 08:58:26;;;;;;;11.00;5.35;;;;;;;15.47;100.00;100913.09;6123680;28;20459;-72
2023/10/23 09:01:22;;;;;;;11.93;6.18;;;;;;;15.28;100.00;100908.09;6141209;28;20047;-71
2023/10/23 09:04:17;;;;;;;12.23;6.43;;;;;;;15.66;100.00;100913.66;6124051;28;20043;-70
2023/10/23 09:07:12;;;;;;;10.67;5.97;;;;;;;15.60;100.00;100901.03;6139030;28;20258;-72
2023/10/23 09:10:08;;;;;;;12.77;6.80;;;;;;;15.31;100.00;100913.09;6130337;28;20757;-71
2023/10/23 09:13:03;;;;;;;13.82;7.20;;;;;;;15.13;100.00;100915.16;6134972;28;20085;-70
2023/10/23 09:15:59;;;;;;;12.20;6.60;;;;;;;14.85;100.00;100900.53;6128848;28;20392;-72
2023/10/23 09:18:55;;;;;;;12.38;6.35;;;;;;;14.68;100.00;100904.19;6122033;28;20083;-71
2023/10/23 09:21:55;;;;;;;12.43;5.75;;;;;;;14.16;100.00;100911.63;6132684;28;20561;-71
2023/10/23 09:24:50;;;;;;;;;;;;;;;14.02;100.00;100923.78;6139887;28;20028;-72
2023/10/23 09:27:46;;;;;;;14.47;6.93;;;;;;;13.79;100.00;100906.72;6134604;28;20471;-71
2023/10/23 09:30:42;;;;;;;14.05;7.25;;;;;;;13.67;100.00;100918.66;6127357;28;20036;-72
2023/10/23 09:33:37;;;;;;;12.73;7.00;;;;;;;13.46;100.00;100904.94;6128644;28;20040;-71
2023/10/23 09:36:33;;;;;;;16.52;7.40;;;;;;;13.61;100.00;100908.66;6135942;28;20052;-71
2023/10/23 09:39:28;;;;;;;14.02;7.10;;;;;;;13.97;100.00;100910.09;6106433;28;20028;-72
2023/10/23 09:42:31;;;;;;;13.05;7.40;;;;;;;14.25;100.00;100903.50;6130345;28;20151;-71
2023/10/23 09:45:27;;;;;;;14.60;7.45;;;;;;;14.44;100.00;100912.22;6128270;28;20020;-71
2023/10/23 09:48:23;;;;;;;16.50;7.68;;;;;;;14.22;100.00;100905.66;6125941;28;20448;-70
2023/10/23 09:51:19;;;;;;;13.48;6.78;;;;;;;14.06;100.00;100908.28;6135121;28;20036;-71
2023/10/23 09:54:17;;;;;;;12.55;6.75;;;;;;;13.90;100.00;100903.75;6129603;28;20457;-71
2023/10/23 09:57:13;;;;;;;12.85;7.18;;;;;;;13.87;100.00;100890.75;6134024;28;20036;-71
2023/10/23 10:00:13;;;;;;;12.80;6.32;;;;;;;13.92;100.00;100885.75;6134072;28;20031;-70
2023/10/23 10:03:12;;;;;;;13.15;6.88;;;;;;;13.91;100.00;100881.44;6132931;28;20128;-71
2023/10/23 10:06:11;;;;;;;12.40;6.47;;;;;;;13.87;100.00;100882.75;6129818;28;20025;-70
2023/10/23 10:09:12;;;;;;;13.55;6.82;;;;;;;14.05;100.00;100888.78;6123557;28;20036;-70
2023/10/23 10:12:08;;;;;;;11.90;6.55;;;;;;;14.19;100.00;100879.31;6130862;28;20039;-70
2023/10/23 10:15:08;;;;;;;10.45;5.05;;;;;;;14.62;100.00;100879.00;6131046;28;20390;-70
2023/10/23 10:18:04;;;;;;;14.77;5.72;;;;;;;14.90;100.00;100882.16;6109366;28;20071;-70
2023/10/23 10:21:04;;;;;;;8.60;5.07;;;;;;;15.11;100.00;100873.59;6135197;28;20032;-71
2023/10/23 10:24:03;;;;;;;12.55;5.22;;;;;;;15.12;100.00;100876.09;6140703;28;20505;-70
2023/10/23 10:27:00;;;;;;;11.55;5.03;;;;;;;15.02;100.00;100878.13;6118540;28;20120;-70
2023/10/23 10:29:55;;;;;;;10.65;5.45;;;;;;;15.26;100.00;100877.22;6134684;28;20155;-69
2023/10/23 10:32:59;;;;;;;10.57;5.40;;;;;;;14.91;100.00;100862.47;6139138;28;20391;-70
2023/10/23 10:36:05;;;;;;;11.80;6.97;;;;;;;15.00;100.00;100877.44;6128088;28;20032;-70
2023/10/23 10:39:00;;;;;;;13.25;5.82;;;;;;;15.22;100.00;100871.38;6135737;28;20067;-70
2023/10/23 10:41:58;;;;;;;9.53;5.57;;;;;;;15.33;100.00;100867.50;6146471;28;20590;-70
2023/10/23 10:44:56;;;;;;;13.55;5.15;;;;;;;15.71;100.00;100852.50;6127614;28;20025;-70
2023/10/23 10:47:54;;;;;;;10.00;4.95;;;;;;;15.50;100.00;100850.44;6123982;28;20183;-70
2023/10/23 10:50:50;;;;;;;8.93;4.90;;;;;;;15.82;100.00;100855.59;6129096;28;20024;-70
2023/10/23 10:53:46;;;;;;;10.43;5.45;;;;;;;15.56;100.00;100862.25;6125068;28;20043;-70
2023/10/23 10:56:44;;;;;;;10.80;5.40;;;;;;;15.59;100.00;100829.84;6134975;28;20077;-71
2023/10/23 10:59:39;;;;;;;8.88;4.70;;;;;;;15.22;100.00;100865.22;6116491;28;20020;-70
2023/10/23 11:02:34;;;;;;;7.43;4.50;;;;;;;14.74;100.00;100855.47;6125411;28;20043;-70
2023/10/23 11:05:30;;;;;;;8.57;3.60;;;;;;;14.34;100.00;100847.50;6128362;28;20031;-70
2023/10/23 11:08:26;;;;;;;6.25;3.22;;;;;;;14.30;100.00;100847.81;6108699;28;20055;-72
2023/10/23 11:11:21;;;;;;;8.27;3.67;;;;;;;14.22;100.00;100838.97;6138951;28;20494;-71
2023/10/23 11:14:17;;;;;;;5.93;3.03;;;;;;;14.18;100.00;100838.50;6146854;28;20028;-72
2023/10/23 11:17:13;;;;;;;6.60;2.70;;;;;;;14.35;100.00;100839.31;6143640;28;20040;-71
2023/10/23 11:20:12;;;;;;;4.80;2.92;;;;;;;14.61;100.00;100842.66;6136237;28;20032;-71
2023/10/23 11:23:07;;;;;;;6.18;3.40;;;;;;;14.62;100.00;100840.84;6131816;28;20044;-71
2023/10/23 11:26:03;;;;;;;6.23;3.50;;;;;;;14.69;100.00;100818.63;6132547;28;20415;-71
2023/10/23 11:28:59;;;;;;;6.85;3.40;;;;;;;14.60;100.00;100810.78;6135274;28;20277;-71
2023/10/23 11:31:54;;;;;;;5.72;2.55;;;;;;;14.75;100.00;100825.97;6142295;28;20036;-72
2023/10/23 11:34:50;;;;;;;5.60;2.83;;;;;;;14.68;100.00;100824.94;6143007;28;20028;-71
2023/10/23 11:37:47;;;;;;;5.97;2.70;;;;;;;14.83;100.00;100823.28;6142782;28;20029;-72
2023/10/23 11:40:43;;;;;;;7.47;3.20;;;;;;;15.21;100.00;100828.81;6129457;28;20036;-70
2023/10/23 11:43:38;;;;;;;6.43;2.53;;;;;;;15.25;97.09;100828.28;6132877;28;20025;-70
2023/10/23 11:46:39;;;;;;;6.93;3.03;;;;;;;15.55;96.82;100817.81;6143329;28;20024;-71
2023/10/23 11:49:34;;;;;;;;;;;;;;;15.29;96.46;100828.78;6120899;28;20035;-70
2023/10/23 11:52:29;;;;;;;6.00;3.53;;;;;;;15.46;96.70;100823.19;6137310;28;19934;-71
2023/10/23 11:55:25;;;;;;;9.37;3.10;;;;;;;15.35;96.87;100809.38;6136604;28;20391;-71
2023/10/23 11:58:27;;;;;;;5.45;2.42;;;;;;;15.14;96.17;100801.94;6132229;28;20263;-72
2023/10/23 12:01:22;;;;;;;6.75;3.38;;;;;;;15.27;96.05;100825.47;6134583;28;20379;-73
2023/10/23 12:04:18;;;;;;;7.23;3.20;;;;;;;15.29;98.80;100820.78;6125282;28;20036;-72
2023/10/23 12:07:13;;;;;;;6.43;2.50;;;;;;;15.24;97.88;100818.63;6125295;28;20035;-71
2023/10/23 12:10:10;;;;;;;6.17;2.90;;;;;;;15.23;98.05;100813.44;6137165;28;20179;-71
2023/10/23 12:13:06;;;;;;;4.88;3.30;;;;;;;15.21;99.84;100810.13;6141559;28;20074;-72
2023/10/23 12:16:01;;;;;;;6.82;2.83;;;;;;;15.27;100.00;100804.88;6132569;28;20028;-72
2023/10/23 12:18:57;;;;;;;6.07;2.80;;;;;;;15.09;100.00;100790.13;6124783;28;20063;-72
2023/10/23 12:21:52;;;;;;;6.90;3.60;;;;;;;15.45;98.08;100797.47;6131617;28;20400;-72
2023/10/23 12:24:47;;;;;;;6.37;2.90;;;;;;;15.28;97.75;100789.69;6130102;28;20618;-74
2023/10/23 12:27:43;;;;;;;4.63;2.77;;;;;;;15.22;99.12;100793.91;6143498;28;20047;-72
2023/10/23 12:30:38;;;;;;;6.20;2.72;;;;;;;15.21;98.17;100789.59;6137847;28;20020;-71
2023/10/23 12:33:33;;;;;;;4.68;2.53;;;;;;;15.28;97.22;100785.19;6124858;28;20085;-71
2023/10/23 12:36:29;;;;;;;5.00;3.00;;;;;;;15.28;97.20;100787.03;6136398;28;20032;-71
2023/10/23 12:39:25;;;;;;;5.93;2.70;;;;;;;15.28;95.44;100798.56;6137193;28;20028;-71
2023/10/23 12:42:21;;;;;;;4.38;2.53;;;;;;;15.43;96.07;100798.66;6134259;28;20327;-71
2023/10/23 12:45:16;;;;;;;6.22;3.03;;;;;;;15.51;98.00;100787.13;6132277;28;20036;-73
2023/10/23 12:48:11;;;;;;;4.30;2.35;;;;;;;15.56;94.22;100790.09;6124492;28;20033;-71
2023/10/23 12:51:07;;;;;;;5.93;2.83;;;;;;;15.52;93.13;100775.44;6136407;28;20442;-71
2023/10/23 12:54:02;;;;;;;5.43;2.83;;;;;;;15.51;89.87;100773.75;6128747;28;20156;-72
2023/10/23 12:56:58;;;;;;;9.90;3.30;;;;;;;15.51;90.15;100768.41;6130936;28;20028;-70
2023/10/23 12:59:53;;;;;;;5.20;2.45;;;;;;;15.83;92.14;100773.53;6141284;28;20280;-72
2023/10/23 13:02:48;;;;;;;6.10;3.00;;;;;;;15.65;90.03;100765.81;6136297;28;20030;-71
2023/10/23 13:05:44;;;;;;;6.32;3.10;;;;;;;15.62;89.51;100758.16;6136044;28;20027;-71
2023/10/23 13:08:40;;;;;;;6.93;3.17;;;;;;;16.01;88.14;100766.03;6137030;28;20155;-72
2023/10/23 13:11:36;;;;;;;5.32;3.00;;;;;;;16.07;91.66;100755.44;6134200;28;20028;-71
2023/10/23 13:14:31;;;;;;;4.93;2.87;;;;;;;16.20;88.93;100759.38;6126131;28;20036;-71
2023/10/23 13:17:26;;;;;;;5.33;2.87;;;;;;;16.24;87.49;100749.94;6116678;28;20028;-71
2023/10/23 13:20:22;;;;;;;5.57;2.70;;;;;;;15.80;89.69;100742.63;6127975;28;20289;-71
2023/10/23 13:23:17;;;;;;;7.95;3.50;;;;;;;16.05;87.48;100741.44;6137303;28;20047;-71
2023/10/23 13:26:12;;;;;;;5.03;2.60;;;;;;;16.20;89.21;100738.75;6133376;28;20366;-71
2023/10/23 13:29:07;;;;;;;8.00;3.70;;;;;;;15.88;92.13;100733.69;6134785;28;20047;-71
2023/10/23 13:32:03;;;;;;;7.77;3.10;;;;;;;15.83;90.29;100718.22;6142560;28;20028;-71